createdAt,value
2022-12-16T00:01:51.349Z,79.80
2022-12-16T00:05:15.548Z,79.70
2022-12-16T00:08:41.080Z,79.70
2022-12-16T00:12:05.279Z,79.70
2022-12-16T00:15:30.309Z,80.40
2022-12-16T00:18:53.778Z,80.50
2022-12-16T00:22:18.291Z,80.80
2022-12-16T00:25:44.051Z,80.60
2022-12-16T00:29:07.728Z,80.50
2022-12-16T00:32:32.581Z,80.30
2022-12-16T00:35:57.286Z,80.00
2022-12-16T00:39:21.068Z,79.90
2022-12-16T00:42:44.939Z,80.00
2022-12-16T00:46:08.631Z,80.30
2022-12-16T00:49:33.504Z,80.40
2022-12-16T00:52:57.020Z,80.50
2022-12-16T00:59:44.650Z,80.30
2022-12-16T01:03:08.509Z,81.10
2022-12-16T01:06:34.559Z,81.20
2022-12-16T01:09:58.215Z,81.30
2022-12-16T01:13:23.016Z,81.40
2022-12-16T01:16:46.795Z,81.70
2022-12-16T01:20:12.037Z,81.00
2022-12-16T01:23:37.055Z,81.60
2022-12-16T01:27:00.531Z,81.70
2022-12-16T01:30:25.025Z,81.80
2022-12-16T01:33:48.831Z,81.90
2022-12-16T01:37:14.037Z,82.20
2022-12-16T01:40:38.850Z,82.10
2022-12-16T01:44:21.477Z,82.60
2022-12-16T01:47:45.175Z,81.40
2022-12-16T01:51:14.796Z,81.20
2022-12-16T01:54:43.709Z,81.40
2022-12-16T01:58:15.342Z,81.50
2022-12-16T02:01:38.805Z,81.60
2022-12-16T02:05:20.297Z,81.30
2022-12-16T02:08:43.767Z,81.20
2022-12-16T02:12:26.594Z,81.20
2022-12-16T02:16:06.136Z,81.50
2022-12-16T02:20:12.389Z,81.60
2022-12-16T02:24:43.373Z,81.50
2022-12-16T02:28:15.336Z,81.60
2022-12-16T02:31:53.824Z,81.70
2022-12-16T02:35:30.763Z,81.90
2022-12-16T02:39:00.927Z,82.10
2022-12-16T02:42:32.527Z,82.00
2022-12-16T02:45:56.250Z,81.90
2022-12-16T02:49:49.611Z,82.00
2022-12-16T02:53:13.919Z,82.30
2022-12-16T02:56:55.411Z,82.20
2022-12-16T03:00:22.618Z,82.40
2022-12-16T03:03:53.702Z,82.50
2022-12-16T03:07:23.148Z,82.50
2022-12-16T03:10:52.593Z,82.40
2022-12-16T03:14:21.340Z,82.30
2022-12-16T03:17:49.149Z,82.20
2022-12-16T03:21:15.601Z,82.10
2022-12-16T03:24:41.667Z,82.10
2022-12-16T03:28:18.860Z,82.10
2022-12-16T03:31:49.705Z,82.40
2022-12-16T03:35:20.771Z,82.50
2022-12-16T03:38:48.186Z,82.60
2022-12-16T03:42:16.386Z,82.60
2022-12-16T03:45:43.420Z,82.60
2022-12-16T03:49:06.852Z,82.60
2022-12-16T03:52:30.470Z,82.50
2022-12-16T03:55:54.328Z,82.50
2022-12-16T03:59:19.530Z,82.60
2022-12-16T04:02:43.502Z,82.80
2022-12-16T04:06:07.651Z,82.60
2022-12-16T04:09:31.098Z,82.70
2022-12-16T04:13:12.590Z,82.40
2022-12-16T04:16:54.826Z,82.60
2022-12-16T04:20:39.764Z,82.90
2022-12-16T04:24:23.926Z,83.20
2022-12-16T04:27:47.763Z,83.10
2022-12-16T04:31:11.816Z,82.60
2022-12-16T04:34:37.020Z,82.80
2022-12-16T04:38:18.277Z,82.90
2022-12-16T04:41:59.120Z,83.20
2022-12-16T04:45:40.336Z,83.10
2022-12-16T04:49:21.672Z,83.10
2022-12-16T04:53:04.000Z,83.30
2022-12-16T04:56:45.012Z,82.60
2022-12-16T05:00:28.301Z,83.20
2022-12-16T05:04:09.246Z,83.80
2022-12-16T05:07:50.402Z,82.90
2022-12-16T05:11:33.556Z,82.90
2022-12-16T05:15:26.312Z,82.40
2022-12-16T05:19:07.373Z,81.70
2022-12-16T05:22:48.543Z,81.80
2022-12-16T05:26:25.961Z,81.70
2022-12-16T05:30:08.355Z,81.80
2022-12-16T05:33:49.304Z,82.20
2022-12-16T05:37:26.699Z,82.30
2022-12-16T05:41:07.644Z,82.10
2022-12-16T05:44:48.871Z,81.80
2022-12-16T05:48:31.690Z,82.00
2022-12-16T05:52:13.065Z,81.80
2022-12-16T05:55:54.044Z,82.00
2022-12-16T05:59:35.358Z,82.20
2022-12-16T06:03:16.529Z,82.20
2022-12-16T06:06:59.461Z,82.60
2022-12-16T06:10:40.641Z,82.50
2022-12-16T06:14:21.525Z,82.70
2022-12-16T06:18:06.562Z,82.60
2022-12-16T06:21:59.308Z,82.60
2022-12-16T06:25:41.647Z,82.40
2022-12-16T06:29:22.661Z,82.30
2022-12-16T06:33:03.798Z,82.30
2022-12-16T06:36:44.765Z,82.30
2022-12-16T06:40:27.977Z,82.20
2022-12-16T06:44:24.801Z,82.30
2022-12-16T06:48:06.198Z,82.30
2022-12-16T06:51:47.140Z,82.30
2022-12-16T06:55:28.369Z,82.60
2022-12-16T06:59:10.839Z,82.70
2022-12-16T07:02:52.155Z,82.90
2022-12-16T07:06:33.207Z,83.50
2022-12-16T07:10:22.663Z,82.90
2022-12-16T07:14:04.260Z,82.60
2022-12-16T07:17:46.754Z,82.60
2022-12-16T07:21:27.751Z,82.80
2022-12-16T07:25:08.822Z,82.80
2022-12-16T07:28:49.804Z,83.10
2022-12-16T07:32:30.651Z,83.30
2022-12-16T07:36:13.223Z,83.20
2022-12-16T07:39:55.450Z,83.30
2022-12-16T07:43:37.038Z,83.30
2022-12-16T07:47:18.380Z,83.40
2022-12-16T07:51:00.100Z,83.40
2022-12-16T07:54:42.622Z,83.50
2022-12-16T07:58:23.550Z,83.50
2022-12-16T08:02:04.762Z,83.80
2022-12-16T08:05:45.983Z,84.30
2022-12-16T08:09:27.073Z,84.50
2022-12-16T08:13:09.514Z,84.30
2022-12-16T08:16:50.748Z,84.00
2022-12-16T08:20:32.362Z,83.60
2022-12-16T08:24:13.214Z,83.60
2022-12-16T08:27:54.287Z,83.90
2022-12-16T08:31:38.494Z,84.20
2022-12-16T08:35:20.617Z,84.50
2022-12-16T08:39:02.354Z,84.60
2022-12-16T08:42:43.614Z,84.10
2022-12-16T08:46:24.692Z,84.00
2022-12-16T08:50:07.457Z,84.10
2022-12-16T08:53:48.672Z,83.70
2022-12-16T08:57:29.951Z,83.30
2022-12-16T09:01:11.183Z,83.40
2022-12-16T09:04:52.637Z,83.40
2022-12-16T09:08:38.280Z,83.40
2022-12-16T09:12:19.167Z,83.40
2022-12-16T09:16:00.404Z,83.50
2022-12-16T09:19:41.411Z,84.00
2022-12-16T09:23:23.170Z,83.50
2022-12-16T09:27:05.358Z,83.70
2022-12-16T09:30:46.418Z,84.00
2022-12-16T09:34:27.699Z,84.20
2022-12-16T09:38:09.050Z,83.80
2022-12-16T09:42:01.694Z,83.10
2022-12-16T09:45:57.885Z,83.20
2022-12-16T09:49:57.584Z,83.50
2022-12-16T09:53:41.350Z,84.30
2022-12-16T09:57:26.907Z,85.00
2022-12-16T10:01:09.586Z,84.60
2022-12-16T10:04:51.065Z,84.20
2022-12-16T10:08:49.805Z,82.00
2022-12-16T10:12:48.568Z,84.10
2022-12-16T10:16:43.906Z,84.60
2022-12-16T10:20:34.549Z,85.10
2022-12-16T10:24:24.930Z,85.00
2022-12-16T10:28:08.605Z,85.20
2022-12-16T10:31:53.031Z,85.00
2022-12-16T10:35:40.592Z,84.10
2022-12-16T10:39:33.755Z,83.60
2022-12-16T10:43:23.378Z,82.50
2022-12-16T10:47:05.910Z,81.70
2022-12-16T11:02:37.707Z,79.30
2022-12-16T11:10:03.154Z,80.30
2022-12-16T11:13:47.999Z,82.50
2022-12-16T11:17:38.343Z,83.20
2022-12-16T11:21:32.754Z,83.30
2022-12-16T11:25:31.789Z,82.70
2022-12-16T11:29:39.704Z,83.00
2022-12-16T11:33:32.973Z,83.50
2022-12-16T11:37:19.598Z,84.10
2022-12-16T11:41:08.130Z,84.40
2022-12-16T11:44:56.959Z,83.90
2022-12-16T11:48:52.085Z,83.60
2022-12-16T11:52:38.033Z,83.10
2022-12-16T11:56:19.749Z,83.40
2022-12-16T12:00:06.302Z,82.60
2022-12-16T12:03:58.892Z,82.80
2022-12-16T12:07:52.669Z,83.50
2022-12-16T12:11:43.234Z,83.80
2022-12-16T12:15:43.704Z,83.10
2022-12-16T12:19:43.677Z,82.80
2022-12-16T12:23:28.642Z,83.20
2022-12-16T12:27:21.400Z,84.40
2022-12-16T12:31:14.313Z,83.30
2022-12-16T12:35:09.544Z,83.30
2022-12-16T12:39:02.541Z,83.70
2022-12-16T12:42:56.389Z,84.50
2022-12-16T12:46:50.104Z,82.40
2022-12-16T12:50:43.183Z,81.60
2022-12-16T12:54:38.262Z,80.90
2022-12-16T12:58:21.857Z,80.90
2022-12-16T13:02:19.693Z,81.30
2022-12-16T13:06:02.544Z,80.60
2022-12-16T13:09:50.441Z,81.10
2022-12-16T13:13:50.584Z,81.70
2022-12-16T13:17:33.660Z,82.40
2022-12-16T13:21:19.663Z,82.80
2022-12-16T13:25:07.147Z,82.10
2022-12-16T13:28:52.454Z,81.60
2022-12-16T13:32:40.269Z,81.20
2022-12-16T13:36:23.524Z,81.50
2022-12-16T13:40:23.651Z,81.20
2022-12-16T13:44:09.609Z,80.10
2022-12-16T13:47:53.840Z,80.40
2022-12-16T13:52:35.557Z,80.20
2022-12-16T13:56:19.758Z,79.90
2022-12-16T14:00:02.541Z,80.30
2022-12-16T14:04:03.303Z,79.80
2022-12-16T14:07:48.697Z,80.80
2022-12-16T14:11:39.622Z,80.90
2022-12-16T14:15:31.258Z,80.50
2022-12-16T14:19:32.874Z,79.90
2022-12-16T14:23:54.775Z,80.30
2022-12-16T14:27:33.749Z,80.50
2022-12-16T14:31:24.047Z,80.90
2022-12-16T14:35:04.993Z,81.00
2022-12-16T14:38:49.973Z,81.10
2022-12-16T14:42:39.042Z,81.20
2022-12-16T14:46:20.786Z,81.20
2022-12-16T14:50:10.496Z,81.40
2022-12-16T14:53:52.771Z,81.10
2022-12-16T14:57:40.913Z,80.10
2022-12-16T15:01:42.090Z,80.50
2022-12-16T15:05:25.788Z,80.60
2022-12-16T15:09:14.168Z,80.50
2022-12-16T15:12:56.355Z,80.90
2022-12-16T15:16:57.318Z,80.50
2022-12-16T15:20:43.419Z,80.50
2022-12-16T15:24:29.831Z,80.40
2022-12-16T15:28:15.512Z,80.50
2022-12-16T15:32:03.370Z,80.30
2022-12-16T15:35:49.527Z,80.40
2022-12-16T15:39:39.765Z,80.20
2022-12-16T15:43:20.848Z,80.40
2022-12-16T15:47:07.204Z,80.20
2022-12-16T15:50:48.436Z,80.50
2022-12-16T15:54:37.184Z,80.30
2022-12-16T15:58:19.994Z,80.40
2022-12-16T16:02:05.240Z,80.40
2022-12-16T16:05:46.555Z,80.10
2022-12-16T16:09:34.304Z,80.10
2022-12-16T16:13:15.238Z,80.00
2022-12-16T16:16:56.202Z,80.20
2022-12-16T16:20:38.045Z,79.80
2022-12-16T16:24:19.530Z,80.10
2022-12-16T16:28:02.221Z,79.90
2022-12-16T16:31:43.302Z,79.80
2022-12-16T16:35:24.514Z,79.90
2022-12-16T16:39:05.536Z,80.10
2022-12-16T16:42:47.213Z,80.40
2022-12-16T16:46:50.846Z,80.60
2022-12-16T16:50:33.349Z,80.40
2022-12-16T16:54:14.145Z,80.50
2022-12-16T16:57:56.567Z,80.50
2022-12-16T17:01:39.594Z,79.90
2022-12-16T17:05:20.756Z,80.10
2022-12-16T17:09:01.962Z,80.10
2022-12-16T17:12:46.844Z,80.00
2022-12-16T17:16:29.533Z,80.10
2022-12-16T17:20:11.771Z,79.80
2022-12-16T17:23:53.105Z,79.20
2022-12-16T17:27:37.718Z,79.10
2022-12-16T17:31:18.964Z,79.20
2022-12-16T17:34:59.947Z,78.80
2022-12-16T17:38:42.214Z,78.90
2022-12-16T17:42:23.793Z,79.20
2022-12-16T17:46:16.170Z,79.20
2022-12-16T17:53:35.510Z,79.20
2022-12-16T17:57:18.402Z,78.60
2022-12-16T18:04:41.028Z,78.70
2022-12-16T18:12:03.444Z,79.10
2022-12-16T18:15:45.831Z,80.00
2022-12-16T18:23:21.946Z,79.20
2022-12-16T18:30:45.937Z,79.10
2022-12-16T18:53:06.742Z,77.50
2022-12-16T18:56:48.957Z,78.90
2022-12-16T19:00:45.950Z,79.20
2022-12-16T19:08:14.167Z,77.50
2022-12-16T19:11:55.503Z,78.80
2022-12-16T19:15:40.988Z,79.00
2022-12-16T19:19:22.871Z,79.20
2022-12-16T19:23:05.181Z,79.00
2022-12-16T19:26:46.750Z,78.80
2022-12-16T19:30:28.997Z,78.60
2022-12-16T19:34:12.552Z,78.90
2022-12-16T19:37:53.938Z,78.80
2022-12-16T19:41:37.866Z,78.90
2022-12-16T19:45:18.844Z,78.90
2022-12-16T19:49:00.173Z,78.90
2022-12-16T19:52:41.191Z,78.90
2022-12-16T19:56:30.421Z,78.90
2022-12-16T20:00:13.133Z,79.10
2022-12-16T20:03:56.509Z,79.00
2022-12-16T20:07:38.128Z,79.10
2022-12-16T20:11:24.314Z,79.20
2022-12-16T20:15:05.681Z,79.20
2022-12-16T20:18:48.032Z,78.60
2022-12-16T20:22:29.332Z,78.80
2022-12-16T20:26:14.281Z,79.10
2022-12-16T20:29:56.460Z,79.00
2022-12-16T20:33:37.608Z,79.00
2022-12-16T20:37:20.566Z,79.20
2022-12-16T20:41:01.499Z,78.90
2022-12-16T20:44:42.364Z,79.10
2022-12-16T20:48:23.925Z,79.00
2022-12-16T20:52:05.936Z,79.10
2022-12-16T20:55:48.905Z,79.20
2022-12-16T20:59:29.927Z,78.70
2022-12-16T21:03:11.091Z,79.00
2022-12-16T21:06:52.278Z,79.30
2022-12-16T21:10:33.749Z,79.30
2022-12-16T21:14:16.448Z,79.40
2022-12-16T21:17:57.270Z,79.20
2022-12-16T21:21:38.131Z,79.40
2022-12-16T21:25:24.482Z,79.40
2022-12-16T21:29:06.345Z,79.50
2022-12-16T21:32:50.999Z,79.30
2022-12-16T21:36:34.653Z,79.30
2022-12-16T21:40:15.555Z,79.40
2022-12-16T21:43:56.503Z,79.50
2022-12-16T21:47:37.542Z,79.50
2022-12-16T21:51:20.139Z,79.40
2022-12-16T21:55:01.080Z,79.70
2022-12-16T21:58:42.198Z,79.50
2022-12-16T22:02:23.206Z,79.50
2022-12-16T22:06:04.429Z,79.20
2022-12-16T22:09:46.856Z,78.70
2022-12-16T22:13:27.910Z,78.60
2022-12-16T22:17:08.761Z,78.20
2022-12-16T22:20:51.799Z,78.00
2022-12-16T22:24:33.494Z,77.90
2022-12-16T22:28:15.986Z,77.70
2022-12-16T22:31:57.186Z,77.50
2022-12-16T22:35:34.667Z,77.50
2022-12-16T22:39:15.770Z,77.50
2022-12-16T22:43:05.466Z,77.20
2022-12-16T22:46:47.921Z,77.00
2022-12-16T22:50:29.356Z,76.60
2022-12-16T22:54:10.772Z,76.40
2022-12-16T22:57:53.566Z,76.20
2022-12-16T23:01:34.903Z,76.20
2022-12-16T23:05:19.167Z,76.00
2022-12-16T23:09:03.294Z,76.10
2022-12-16T23:12:44.870Z,76.30
2022-12-16T23:16:26.853Z,76.30
2022-12-16T23:20:07.746Z,76.40
2022-12-16T23:23:50.185Z,76.50
2022-12-16T23:27:31.281Z,76.50
2022-12-16T23:31:13.981Z,76.40
2022-12-16T23:34:55.012Z,76.40
2022-12-16T23:38:36.440Z,76.20
2022-12-16T23:42:18.870Z,75.80
2022-12-16T23:46:01.922Z,75.60
2022-12-16T23:49:42.920Z,75.50
2022-12-16T23:53:25.786Z,75.40
2022-12-16T23:57:06.907Z,75.40
